Time;durP1;ratioP1;P1;durP2;ratioP2;P2;SDS_P1;SDS_P2;PMS_P1;PMS_P2;Temp;Humidity;BMP_temperature;BMP_pressure;BME280_temperature;BME280_humidity;BME280_pressure;Samples;Min_cycle;Max_cycle;Signal;HPM_P1;HPM_P2
2021/07/05 00:01:42;;;;;;;5.30;0.90;;;19.50;1.00;;;;;;5027259;28;20452;-80
2021/07/05 00:04:11;;;;;;;0.70;0.70;;;19.50;99.90;;;;;;5032931;28;20468;-82
2021/07/05 00:06:39;;;;;;;0.60;0.60;;;19.50;1.00;;;;;;5030036;28;20468;-81
2021/07/05 00:09:08;;;;;;;0.60;0.60;;;19.50;99.90;;;;;;5032944;28;20464;-82
2021/07/05 00:11:36;;;;;;;0.80;0.60;;;19.50;1.00;;;;;;5030414;28;20457;-82
2021/07/05 00:14:06;;;;;;;0.97;0.50;;;19.50;99.90;;;;;;5032182;28;20476;-81
2021/07/05 00:16:34;;;;;;;0.50;0.50;;;19.50;99.90;;;;;;5031915;28;20441;-80
2021/07/05 00:19:02;;;;;;;0.67;0.53;;;19.50;1.00;;;;;;5030714;28;20480;-80
2021/07/05 00:21:30;;;;;;;0.80;0.77;;;19.60;99.90;;;;;;5030748;28;20510;-80
2021/07/05 00:23:58;;;;;;;1.00;0.63;;;19.50;99.90;;;;;;5031316;28;20479;-80
2021/07/05 00:26:26;;;;;;;0.60;0.60;;;19.50;99.90;;;;;;5027804;28;20821;-79
2021/07/05 00:28:54;;;;;;;1.20;0.67;;;19.40;99.90;;;;;;5031370;28;20535;-80
2021/07/05 00:31:24;;;;;;;0.70;0.70;;;19.40;1.00;;;;;;5032407;28;20463;-82
2021/07/05 00:33:53;;;;;;;0.70;0.70;;;19.40;1.00;;;;;;5031945;28;20479;-81
2021/07/05 00:36:21;;;;;;;0.93;0.67;;;19.30;1.00;;;;;;5027098;28;20457;-82
2021/07/05 00:38:49;;;;;;;0.70;0.70;;;19.20;1.00;;;;;;5034059;28;20448;-81
2021/07/05 00:41:17;;;;;;;1.10;0.57;;;19.40;1.00;;;;;;5024131;28;20468;-82
2021/07/05 00:43:45;;;;;;;1.10;0.70;;;19.30;1.00;;;;;;5034385;28;20494;-81
2021/07/05 00:46:14;;;;;;;0.93;0.60;;;19.20;1.00;;;;;;5030158;28;20619;-81
2021/07/05 00:48:43;;;;;;;0.63;0.63;;;19.20;1.00;;;;;;5033520;28;20441;-81
2021/07/05 00:51:11;;;;;;;0.70;0.70;;;19.30;1.00;;;;;;5030238;28;20460;-81
2021/07/05 00:53:40;;;;;;;0.60;0.60;;;19.20;1.00;;;;;;5032378;28;20464;-79
2021/07/05 00:56:08;;;;;;;0.70;0.70;;;19.20;1.00;;;;;;5029260;28;20452;-80
2021/07/05 00:58:36;;;;;;;0.80;0.80;;;19.20;1.00;;;;;;5030148;28;20528;-82
2021/07/05 01:01:04;;;;;;;3.97;0.67;;;19.20;1.00;;;;;;5029799;28;20924;-81
2021/07/05 01:03:33;;;;;;;1.20;0.70;;;19.20;1.00;;;;;;5032334;28;20475;-82
2021/07/05 01:06:03;;;;;;;4.63;0.77;;;19.20;1.00;;;;;;5026763;28;20469;-82
2021/07/05 01:08:31;;;;;;;0.70;0.70;;;19.20;1.00;;;;;;5032229;28;20498;-82
2021/07/05 01:10:59;;;;;;;1.20;0.70;;;19.10;1.00;;;;;;5031993;28;20445;-82
2021/07/05 01:13:27;;;;;;;1.00;0.80;;;19.10;1.00;;;;;;5032026;28;20538;-81
2021/07/05 01:15:56;;;;;;;2.40;0.70;;;19.10;1.00;;;;;;5044419;28;20467;-82
2021/07/05 01:18:24;;;;;;;5.80;1.00;;;19.00;1.00;;;;;;5032889;28;20527;-82
2021/07/05 01:20:52;;;;;;;2.53;0.70;;;18.90;87.60;;;;;;5030283;28;20441;-81
2021/07/05 01:23:21;;;;;;;0.73;0.70;;;18.90;99.90;;;;;;5031557;28;20495;-81
2021/07/05 01:25:50;;;;;;;2.37;0.60;;;18.80;99.90;;;;;;5027678;28;20537;-82
2021/07/05 01:28:18;;;;;;;0.80;0.70;;;18.80;99.90;;;;;;5031313;28;20448;-82
2021/07/05 01:30:47;;;;;;;2.70;0.90;;;18.90;54.00;;;;;;5029426;28;20467;-82
2021/07/05 01:33:15;;;;;;;0.70;0.70;;;18.80;39.90;;;;;;5032833;28;20464;-81
2021/07/05 01:35:44;;;;;;;0.90;0.90;;;18.80;1.00;;;;;;5025016;28;21095;-81
2021/07/05 01:38:13;;;;;;;2.03;0.80;;;18.80;99.90;;;;;;5031671;28;20464;-82
2021/07/05 01:40:44;;;;;;;3.20;0.70;;;19.00;1.00;;;;;;5030962;28;20441;-80
2021/07/05 01:43:12;;;;;;;0.80;0.80;;;18.90;1.00;;;;;;5027766;28;20472;-83
2021/07/05 01:45:41;;;;;;;2.17;1.97;;;19.00;1.00;;;;;;5032428;28;20464;-80
2021/07/05 01:48:09;;;;;;;2.50;0.80;;;19.10;1.00;;;;;;5031484;28;20471;-81
2021/07/05 01:50:37;;;;;;;2.13;0.80;;;19.20;99.90;;;;;;5029027;28;20449;-81
2021/07/05 01:53:05;;;;;;;1.00;0.80;;;19.20;99.90;;;;;;5031790;28;20464;-82
2021/07/05 01:55:34;;;;;;;5.13;0.80;;;19.30;99.90;;;;;;5022688;28;20472;-82
2021/07/05 01:58:06;;;;;;;0.70;0.70;;;19.40;99.90;;;;;;5027050;28;20518;-82
2021/07/05 02:00:36;;;;;;;0.80;0.60;;;19.20;99.90;;;;;;5027297;28;20495;-82
2021/07/05 02:03:05;;;;;;;1.37;0.70;;;19.20;99.90;;;;;;5031968;28;20464;-82
2021/07/05 02:05:35;;;;;;;1.23;0.80;;;19.10;99.90;;;;;;5028380;28;20970;-82
2021/07/05 02:08:04;;;;;;;3.47;1.23;;;19.00;99.90;;;;;;5028383;28;20505;-81
2021/07/05 02:10:34;;;;;;;0.70;0.70;;;19.00;99.90;;;;;;5032475;28;20930;-81
2021/07/05 02:13:07;;;;;;;1.20;0.67;;;19.00;99.90;;;;;;5023268;28;20502;-81
2021/07/05 02:15:35;;;;;;;1.03;0.80;;;19.00;99.90;;;;;;5031592;28;20448;-80
2021/07/05 02:18:04;;;;;;;0.70;0.63;;;18.90;1.00;;;;;;5028980;28;20536;-80
2021/07/05 02:20:33;;;;;;;0.80;0.70;;;18.70;1.00;;;;;;5030494;28;20803;-81
2021/07/05 02:23:05;;;;;;;1.00;0.63;;;18.80;1.00;;;;;;5030934;28;20809;-81
2021/07/05 02:25:34;;;;;;;0.63;0.63;;;18.80;1.00;;;;;;5027052;28;20472;-80
2021/07/05 02:28:06;;;;;;;0.80;0.77;;;18.80;1.00;;;;;;5031372;28;20440;-81
2021/07/05 02:30:34;;;;;;;1.57;0.70;;;18.80;1.00;;;;;;5028664;28;20460;-81
2021/07/05 02:33:03;;;;;;;0.70;0.70;;;18.80;1.00;;;;;;5029975;28;20590;-82
2021/07/05 02:35:32;;;;;;;0.80;0.70;;;18.90;1.00;;;;;;5026287;28;20494;-81
2021/07/05 02:38:00;;;;;;;0.60;0.60;;;18.80;1.00;;;;;;5013637;28;20556;-82
2021/07/05 02:40:31;;;;;;;1.17;0.70;;;18.80;1.00;;;;;;5027971;28;20459;-81
2021/07/05 02:42:59;;;;;;;0.70;0.70;;;18.90;1.00;;;;;;5030223;28;20486;-81
2021/07/05 02:45:30;;;;;;;1.07;0.70;;;18.90;1.00;;;;;;5030955;28;20499;-80
2021/07/05 02:48:01;;;;;;;1.00;0.90;;;18.90;1.00;;;;;;5031508;28;20478;-80
2021/07/05 02:50:30;;;;;;;0.70;0.70;;;18.90;1.00;;;;;;5030307;28;20452;-81
2021/07/05 02:52:59;;;;;;;0.93;0.90;;;18.80;1.00;;;;;;5032318;28;20526;-82
2021/07/05 02:55:28;;;;;;;0.70;0.70;;;18.80;1.00;;;;;;5033973;28;20842;-80
2021/07/05 02:57:56;;;;;;;1.27;0.70;;;18.80;1.00;;;;;;5027010;28;20444;-82
2021/07/05 03:00:27;;;;;;;0.87;0.70;;;18.90;1.00;;;;;;5033752;28;20528;-81
2021/07/05 03:02:57;;;;;;;2.50;0.80;;;19.00;99.90;;;;;;5034779;28;20468;-80
2021/07/05 03:05:27;;;;;;;0.70;0.70;;;19.10;1.00;;;;;;5038914;28;20476;-81
2021/07/05 03:07:56;;;;;;;4.23;0.87;;;19.00;99.90;;;;;;5031869;28;20514;-82
2021/07/05 03:10:25;;;;;;;1.47;0.60;;;19.10;1.00;;;;;;5034365;28;21064;-82
2021/07/05 03:12:56;;;;;;;0.90;0.80;;;19.10;99.90;;;;;;5031877;28;20484;-81
2021/07/05 03:15:25;;;;;;;1.50;0.80;;;19.10;99.90;;;;;;5034155;28;20494;-83
2021/07/05 03:17:58;;;;;;;1.00;0.70;;;19.20;99.90;;;;;;5032119;28;20460;-82
2021/07/05 03:20:29;;;;;;;2.37;0.83;;;19.20;99.90;;;;;;5029470;28;20462;-82
2021/07/05 03:22:59;;;;;;;1.03;0.87;;;19.30;99.90;;;;;;5032140;28;20503;-81
2021/07/05 03:25:30;;;;;;;2.10;0.73;;;19.20;99.90;;;;;;5026715;28;20484;-82
2021/07/05 03:27:59;;;;;;;3.00;0.97;;;19.10;99.90;;;;;;5035398;28;20449;-83
2021/07/05 03:30:29;;;;;;;2.40;0.80;;;19.10;99.90;;;;;;5034316;28;20951;-81
2021/07/05 03:32:59;;;;;;;0.73;0.70;;;19.10;1.00;;;;;;5035307;28;21318;-82
2021/07/05 03:35:27;;;;;;;0.83;0.70;;;19.10;1.00;;;;;;5029928;28;21148;-82
2021/07/05 03:37:56;;;;;;;0.90;0.70;;;19.20;99.90;;;;;;5032036;28;20546;-81
2021/07/05 03:40:27;;;;;;;0.70;0.70;;;19.10;99.90;;;;;;5034076;28;20441;-81
2021/07/05 03:42:56;;;;;;;1.30;0.80;;;19.10;99.90;;;;;;5031280;28;20483;-81
2021/07/05 03:45:26;;;;;;;1.60;0.90;;;19.10;99.90;;;;;;5033471;28;20448;-81
2021/07/05 03:47:58;;;;;;;0.80;0.80;;;19.00;99.90;;;;;;5034225;28;20823;-81
2021/07/05 03:50:27;;;;;;;1.00;0.90;;;19.00;1.00;;;;;;5032149;28;20456;-82
2021/07/05 03:52:56;;;;;;;0.87;0.80;;;19.00;1.00;;;;;;5032271;28;20478;-81
2021/07/05 03:55:28;;;;;;;1.13;0.80;;;19.10;1.00;;;;;;5031846;28;20453;-81
2021/07/05 03:57:57;;;;;;;0.80;0.80;;;19.20;99.90;;;;;;5044863;28;20522;-81
2021/07/05 04:00:27;;;;;;;0.70;0.70;;;19.10;99.90;;;;;;5030175;28;20901;-80
2021/07/05 04:02:56;;;;;;;1.63;1.00;;;19.10;1.00;;;;;;5032148;28;20480;-81
2021/07/05 04:05:26;;;;;;;1.03;0.80;;;19.20;99.90;;;;;;5026762;28;20510;-79
2021/07/05 04:07:55;;;;;;;2.40;1.13;;;19.10;99.90;;;;;;5026737;28;20455;-79
2021/07/05 04:10:23;;;;;;;1.60;0.80;;;19.20;99.90;;;;;;5018817;28;20855;-81
2021/07/05 04:12:51;;;;;;;2.10;0.90;;;19.20;99.90;;;;;;5034866;28;20499;-82
2021/07/05 04:15:20;;;;;;;0.80;0.80;;;19.20;99.90;;;;;;5023007;28;20452;-80
2021/07/05 04:17:49;;;;;;;1.33;0.77;;;19.20;99.90;;;;;;5034074;28;20839;-81
2021/07/05 04:20:19;;;;;;;3.40;1.03;;;19.20;99.90;;;;;;5031674;28;20452;-82
2021/07/05 04:22:49;;;;;;;0.83;0.80;;;19.30;99.90;;;;;;5033622;28;20471;-80
2021/07/05 04:25:19;;;;;;;1.63;0.87;;;19.30;99.90;;;;;;5030881;28;20441;-81
2021/07/05 04:27:48;;;;;;;4.00;2.20;;;19.30;99.90;;;;;;5030081;28;20479;-82
2021/07/05 04:30:18;;;;;;;1.27;1.17;;;19.30;99.90;;;;;;5042109;28;20531;-80
2021/07/05 04:32:47;;;;;;;1.70;0.90;;;19.40;99.90;;;;;;5031866;28;20575;-80
2021/07/05 04:35:18;;;;;;;1.23;0.90;;;19.30;99.90;;;;;;5042139;28;20455;-81
2021/07/05 04:37:49;;;;;;;1.73;0.90;;;19.30;99.90;;;;;;5030416;28;20432;-81
2021/07/05 04:40:19;;;;;;;0.73;0.70;;;19.30;99.90;;;;;;5027856;28;20484;-82
2021/07/05 04:42:49;;;;;;;2.10;1.03;;;19.20;99.90;;;;;;5046910;28;20500;-84
2021/07/05 04:45:19;;;;;;;1.30;0.80;;;19.30;99.90;;;;;;5031045;28;20437;-84
2021/07/05 04:47:49;;;;;;;2.80;1.20;;;19.40;99.90;;;;;;5032208;28;20476;-81
2021/07/05 04:50:17;;;;;;;1.07;0.97;;;19.30;99.90;;;;;;5025314;28;20943;-80
2021/07/05 04:52:46;;;;;;;1.43;0.80;;;19.20;99.90;;;;;;5029375;28;20470;-82
2021/07/05 04:55:19;;;;;;;2.60;1.00;;;19.10;99.90;;;;;;5027272;28;20818;-82
2021/07/05 04:57:49;;;;;;;1.00;0.90;;;18.80;1.00;;;;;;5010162;28;20495;-83
2021/07/05 05:00:19;;;;;;;0.90;0.70;;;18.70;99.90;;;;;;5024332;28;20458;-83
2021/07/05 05:02:55;;;;;;;0.90;0.80;;;18.60;99.90;;;;;;5023334;28;20476;-79
2021/07/05 05:05:23;;;;;;;0.93;0.87;;;18.70;99.90;;;;;;5022515;28;20567;-80
2021/07/05 05:07:52;;;;;;;1.00;0.80;;;18.80;99.90;;;;;;5020496;28;20473;-79
2021/07/05 05:10:22;;;;;;;2.03;0.80;;;18.90;99.90;;;;;;5021910;28;21320;-81
2021/07/05 05:12:50;;;;;;;0.70;0.70;;;19.00;1.00;;;;;;5026825;28;20480;-80
2021/07/05 05:15:20;;;;;;;1.53;0.70;;;19.00;1.00;;;;;;5027385;28;20445;-80
2021/07/05 05:17:49;;;;;;;1.00;0.90;;;19.00;1.00;;;;;;5025463;28;20467;-80
2021/07/05 05:20:18;;;;;;;2.40;0.80;;;19.00;1.50;;;;;;5013693;28;20520;-80
2021/07/05 05:22:47;;;;;;;0.87;0.73;;;19.10;1.00;;;;;;5022431;28;20467;-81
2021/07/05 05:25:17;;;;;;;0.80;0.80;;;19.10;1.00;;;;;;5029191;28;20441;-82
2021/07/05 05:27:48;;;;;;;1.00;0.90;;;19.20;1.00;;;;;;5026825;28;20476;-80
2021/07/05 05:30:18;;;;;;;0.87;0.87;;;19.10;1.00;;;;;;5026548;28;20815;-80
2021/07/05 05:32:48;;;;;;;0.80;0.77;;;19.10;1.00;;;;;;5024305;28;20511;-81
2021/07/05 05:35:18;;;;;;;1.70;0.93;;;19.10;1.00;;;;;;5031298;28;20479;-82
2021/07/05 05:37:46;;;;;;;0.77;0.77;;;19.10;1.00;;;;;;5023869;28;20816;-82
2021/07/05 05:40:15;;;;;;;2.40;1.00;;;19.20;1.00;;;;;;5030991;28;20459;-81
2021/07/05 05:42:44;;;;;;;1.50;0.80;;;19.20;1.00;;;;;;5031063;28;20983;-80
2021/07/05 05:45:14;;;;;;;1.03;1.00;;;19.20;1.00;;;;;;5031179;28;20452;-82
2021/07/05 05:47:42;;;;;;;1.57;0.73;;;19.20;1.00;;;;;;5029320;28;20477;-81
2021/07/05 05:50:12;;;;;;;3.43;0.97;;;19.20;1.00;;;;;;5030550;28;20453;-81
2021/07/05 05:52:40;;;;;;;0.90;0.90;;;19.20;25.50;;;;;;5030889;28;20514;-81
2021/07/05 05:55:10;;;;;;;0.77;0.77;;;19.30;5.80;;;;;;5030449;28;20972;-81
2021/07/05 05:57:39;;;;;;;1.07;0.87;;;19.30;91.70;;;;;;5028959;28;20486;-80
2021/07/05 06:00:10;;;;;;;2.50;0.80;;;19.20;99.90;;;;;;5030257;28;20482;-82
2021/07/05 06:02:40;;;;;;;1.03;0.93;;;19.20;99.90;;;;;;5029538;28;20472;-81
2021/07/05 06:05:10;;;;;;;0.90;0.90;;;19.10;1.00;;;;;;5030527;28;20451;-80
2021/07/05 06:07:38;;;;;;;4.47;1.10;;;19.10;1.00;;;;;;5029165;28;20475;-80
2021/07/05 06:10:07;;;;;;;0.80;0.80;;;19.20;1.00;;;;;;5029647;28;20498;-77
2021/07/05 06:12:35;;;;;;;1.70;0.95;;;19.10;1.00;;;;;;5027655;28;20840;-77
2021/07/05 06:15:07;;;;;;;1.00;0.90;;;19.10;1.00;;;;;;5030598;28;20257;-81
2021/07/05 06:17:36;;;;;;;0.90;0.90;;;19.10;1.00;;;;;;5030773;28;20452;-83
2021/07/05 06:20:07;;;;;;;0.90;0.80;;;19.20;1.00;;;;;;5028645;28;20460;-83
2021/07/05 06:22:47;;;;;;;0.80;0.80;;;19.20;1.00;;;;;;5018763;28;20478;-81
2021/07/05 06:25:15;;;;;;;1.63;0.87;;;19.20;99.90;;;;;;5024253;28;20456;-80
2021/07/05 06:27:44;;;;;;;1.07;0.97;;;19.20;99.90;;;;;;5031340;28;20472;-80
2021/07/05 06:30:14;;;;;;;2.50;1.00;;;19.20;99.90;;;;;;5044641;28;20488;-81
2021/07/05 06:32:43;;;;;;;1.37;0.87;;;19.10;69.10;;;;;;5032286;28;20480;-82
2021/07/05 06:35:13;;;;;;;1.00;0.80;;;19.10;99.90;;;;;;5030037;28;20469;-80
2021/07/05 06:37:42;;;;;;;0.70;0.70;;;19.10;99.90;;;;;;5026613;28;20480;-81
2021/07/05 06:40:11;;;;;;;0.80;0.80;;;19.10;1.00;;;;;;5019052;28;20464;-81
2021/07/05 06:42:39;;;;;;;1.43;1.20;;;19.10;1.00;;;;;;5031204;28;20820;-82
2021/07/05 06:45:08;;;;;;;2.03;0.93;;;19.10;1.00;;;;;;5025045;28;20449;-84
2021/07/05 06:47:36;;;;;;;0.80;0.80;;;19.10;99.90;;;;;;5031458;28;20472;-80
2021/07/05 06:50:05;;;;;;;0.90;0.90;;;19.20;99.90;;;;;;5029796;28;20539;-80
2021/07/05 06:52:35;;;;;;;2.00;0.87;;;19.20;99.90;;;;;;5030639;28;20535;-82
2021/07/05 06:55:06;;;;;;;0.90;0.90;;;19.30;1.00;;;;;;5030288;28;20658;-83
2021/07/05 06:57:34;;;;;;;2.57;1.03;;;19.20;99.90;;;;;;5033675;28;20443;-82
2021/07/05 07:00:06;;;;;;;1.37;0.80;;;19.20;99.90;;;;;;5031133;28;20463;-83
2021/07/05 07:02:36;;;;;;;3.70;1.33;;;19.10;96.20;;;;;;5032246;28;20473;-81
2021/07/05 07:05:06;;;;;;;2.13;0.80;;;19.00;1.00;;;;;;5030142;28;20523;-82
2021/07/05 07:07:36;;;;;;;0.80;0.80;;;19.00;99.90;;;;;;5034533;28;20545;-82
2021/07/05 07:10:05;;;;;;;0.77;0.77;;;19.00;1.00;;;;;;5031466;28;20433;-80
2021/07/05 07:12:35;;;;;;;0.80;0.80;;;19.10;1.00;;;;;;5034114;28;20484;-83
2021/07/05 07:15:05;;;;;;;1.20;0.70;;;19.10;1.00;;;;;;5029402;28;20461;-80
2021/07/05 07:17:36;;;;;;;0.93;0.83;;;19.20;1.00;;;;;;5030577;28;20452;-81
2021/07/05 07:20:06;;;;;;;3.03;1.00;;;19.30;1.00;;;;;;5031022;28;20448;-79
2021/07/05 07:22:36;;;;;;;1.23;0.70;;;19.30;38.90;;;;;;5031848;28;20483;-79
2021/07/05 07:25:05;;;;;;;1.30;0.80;;;19.40;99.90;;;;;;5030422;28;20448;-77
2021/07/05 07:27:33;;;;;;;0.70;0.70;;;19.30;1.00;;;;;;5031014;28;20543;-80
2021/07/05 07:30:02;;;;;;;1.00;0.90;;;19.30;99.90;;;;;;5029505;28;20456;-81
2021/07/05 07:32:30;;;;;;;1.00;0.90;;;19.40;99.90;;;;;;5028275;28;20997;-82
2021/07/05 07:34:58;;;;;;;2.30;0.80;;;19.30;99.90;;;;;;5030244;28;20506;-79
2021/07/05 07:37:27;;;;;;;1.70;0.90;;;19.40;99.90;;;;;;5031052;28;20440;-79
2021/07/05 07:39:59;;;;;;;1.87;0.90;;;19.40;30.20;;;;;;5030263;28;20448;-78
2021/07/05 07:42:27;;;;;;;1.43;0.90;;;19.50;1.00;;;;;;5028095;28;20460;-78
2021/07/05 07:44:55;;;;;;;0.90;0.70;;;19.50;99.90;;;;;;5042511;28;20975;-81
2021/07/05 07:47:24;;;;;;;1.10;0.80;;;19.40;99.90;;;;;;5030418;28;20452;-78
2021/07/05 07:49:52;;;;;;;1.63;0.80;;;19.50;1.00;;;;;;5029831;28;20964;-79
2021/07/05 07:52:20;;;;;;;1.43;0.97;;;19.40;99.90;;;;;;5035590;28;20974;-81
2021/07/05 07:54:49;;;;;;;0.93;0.80;;;19.40;99.90;;;;;;5042145;28;20441;-77
2021/07/05 07:57:18;;;;;;;1.20;1.10;;;19.40;99.90;;;;;;5025000;28;20951;-80
2021/07/05 07:59:47;;;;;;;1.00;0.73;;;19.50;99.90;;;;;;5027915;28;20451;-81
2021/07/05 08:02:15;;;;;;;1.63;0.90;;;19.40;99.90;;;;;;5026748;28;20457;-77
2021/07/05 08:04:43;;;;;;;0.80;0.67;;;19.40;99.90;;;;;;5028752;28;20533;-78
2021/07/05 08:07:12;;;;;;;0.77;0.77;;;19.40;99.90;;;;;;5029478;28;20978;-77
2021/07/05 08:09:40;;;;;;;0.90;0.90;;;19.40;99.90;;;;;;5028918;28;20876;-78
2021/07/05 08:12:11;;;;;;;0.80;0.80;;;19.50;1.00;;;;;;5027176;28;20543;-79
2021/07/05 08:14:40;;;;;;;1.93;0.80;;;19.40;1.00;;;;;;5032154;28;20452;-77
2021/07/05 08:17:08;;;;;;;1.57;0.90;;;19.30;1.00;;;;;;5027833;28;20460;-80
2021/07/05 08:19:37;;;;;;;0.90;0.80;;;19.30;99.90;;;;;;5030821;28;20947;-79
2021/07/05 08:22:05;;;;;;;0.93;0.80;;;19.30;99.90;;;;;;5028626;28;20444;-78
2021/07/05 08:24:37;;;;;;;1.10;0.90;;;19.40;99.90;;;;;;5029220;28;20480;-81
2021/07/05 08:27:05;;;;;;;1.03;0.70;;;19.40;99.90;;;;;;5028873;28;20448;-81
2021/07/05 08:29:33;;;;;;;1.27;0.80;;;19.40;99.90;;;;;;5030323;28;20482;-79
2021/07/05 08:32:03;;;;;;;2.47;0.97;;;19.40;99.90;;;;;;5025561;28;20855;-76
2021/07/05 08:34:31;;;;;;;1.40;0.80;;;19.40;1.00;;;;;;5029324;28;20477;-78
2021/07/05 08:37:00;;;;;;;1.43;0.90;;;19.40;84.10;;;;;;5028787;28;20518;-78
2021/07/05 08:39:28;;;;;;;1.50;0.80;;;19.40;99.90;;;;;;5030556;28;20488;-79
2021/07/05 08:41:56;;;;;;;1.60;1.10;;;19.50;99.90;;;;;;5027370;28;20456;-79
2021/07/05 08:44:26;;;;;;;1.33;1.07;;;19.50;99.90;;;;;;5030164;28;20483;-79
2021/07/05 08:46:56;;;;;;;2.17;0.90;;;19.50;1.00;;;;;;5027517;28;20959;-78
2021/07/05 08:49:26;;;;;;;2.00;1.30;;;19.50;1.00;;;;;;5029191;28;20483;-77
2021/07/05 08:51:56;;;;;;;1.20;1.10;;;19.60;99.90;;;;;;5041826;28;20463;-78
2021/07/05 08:54:24;;;;;;;0.80;0.80;;;19.60;1.00;;;;;;5035989;28;20477;-78
2021/07/05 08:56:52;;;;;;;1.47;1.00;;;19.60;99.90;;;;;;5030502;28;20549;-78
2021/07/05 08:59:22;;;;;;;1.03;0.93;;;19.50;99.90;;;;;;5033202;28;20453;-79
2021/07/05 09:01:51;;;;;;;1.20;1.00;;;19.60;99.90;;;;;;5030125;28;21034;-80
2021/07/05 09:04:19;;;;;;;0.90;0.90;;;19.70;1.00;;;;;;5048247;28;20485;-78
2021/07/05 09:07:06;;;;;;;0.70;0.70;;;19.70;99.90;;;;;;5044828;28;21230;-78
2021/07/05 09:09:35;;;;;;;0.83;0.83;;;19.80;1.00;;;;;;5026765;28;20987;-78
2021/07/05 09:12:06;;;;;;;0.90;0.90;;;19.70;99.90;;;;;;5030756;28;20476;-77
2021/07/05 09:14:35;;;;;;;0.93;0.80;;;19.70;1.00;;;;;;5021234;28;20490;-78
2021/07/05 09:17:09;;;;;;;1.00;0.70;;;19.60;1.00;;;;;;5029577;28;20452;-77
2021/07/05 09:19:39;;;;;;;0.60;0.60;;;19.30;1.00;;;;;;5032575;28;20445;-77
2021/07/05 09:22:10;;;;;;;0.87;0.80;;;19.20;99.90;;;;;;5046454;28;20530;-77
2021/07/05 09:24:41;;;;;;;0.70;0.70;;;19.30;1.00;;;;;;5031123;28;20868;-76
2021/07/05 09:27:11;;;;;;;1.57;0.90;;;19.40;1.00;;;;;;5031037;28;20487;-77
2021/07/05 09:29:42;;;;;;;2.40;0.90;;;19.40;1.00;;;;;;5029969;28;20472;-76
2021/07/05 09:32:12;;;;;;;0.80;0.60;;;19.40;99.90;;;;;;5022435;28;21302;-77
2021/07/05 09:34:42;;;;;;;0.60;0.60;;;19.40;1.00;;;;;;5031279;28;20448;-74
2021/07/05 09:37:19;;;;;;;0.80;0.70;;;19.40;1.00;;;;;;5023912;28;20463;-74
2021/07/05 09:40:11;;;;;;;1.33;0.90;;;19.30;99.90;;;;;;5032339;28;20448;-76
2021/07/05 09:42:42;;;;;;;1.43;0.60;;;19.30;1.00;;;;;;5032160;28;20704;-76
2021/07/05 09:45:13;;;;;;;0.70;0.70;;;19.30;47.10;;;;;;5029658;28;20456;-75
2021/07/05 09:47:42;;;;;;;1.13;0.57;;;19.30;99.90;;;;;;5020546;28;21066;-76
2021/07/05 09:50:14;;;;;;;0.87;0.87;;;19.30;1.00;;;;;;5012495;28;20512;-74
2021/07/05 09:52:45;;;;;;;0.60;0.60;;;19.40;1.00;;;;;;5044101;28;21019;-76
2021/07/05 09:55:14;;;;;;;0.70;0.70;;;19.40;99.90;;;;;;5032059;28;20460;-75
2021/07/05 09:57:46;;;;;;;0.70;0.70;;;19.40;99.90;;;;;;5032701;28;20801;-77
2021/07/05 10:00:19;;;;;;;0.80;0.60;;;19.50;99.90;;;;;;5026761;28;20718;-74
2021/07/05 10:03:02;;;;;;;0.50;0.50;;;19.50;38.20;;;;;;5042831;28;20481;-73
2021/07/05 10:05:32;;;;;;;0.90;0.50;;;19.60;99.90;;;;;;5029941;28;20954;-76
2021/07/05 10:08:04;;;;;;;0.60;0.60;;;19.50;37.50;;;;;;5049035;28;20483;-78
2021/07/05 10:10:33;;;;;;;0.70;0.63;;;19.60;1.00;;;;;;5044413;28;20495;-75
2021/07/05 10:13:04;;;;;;;0.70;0.63;;;19.50;1.00;;;;;;5031076;28;20492;-76
2021/07/05 10:15:33;;;;;;;0.70;0.70;;;19.50;99.90;;;;;;5032295;28;20535;-75
2021/07/05 10:18:02;;;;;;;1.23;0.70;;;19.50;46.90;;;;;;5033018;28;20447;-74
2021/07/05 10:20:32;;;;;;;1.13;1.07;;;19.60;1.00;;;;;;5031185;28;20448;-77
2021/07/05 10:23:04;;;;;;;0.60;0.60;;;19.60;99.90;;;;;;5030567;28;20555;-77
2021/07/05 10:25:35;;;;;;;1.03;0.63;;;19.50;1.00;;;;;;5029036;28;20459;-76
2021/07/05 10:28:05;;;;;;;1.13;0.80;;;19.50;99.90;;;;;;5030071;28;21024;-76
2021/07/05 10:30:33;;;;;;;0.70;0.70;;;19.50;99.90;;;;;;5028978;28;20538;-77
2021/07/05 10:33:02;;;;;;;1.30;0.60;;;19.50;1.00;;;;;;5030880;28;20476;-79
2021/07/05 10:35:36;;;;;;;0.87;0.70;;;19.50;1.00;;;;;;5025627;28;20479;-78
2021/07/05 10:38:12;;;;;;;0.90;0.90;;;19.40;99.90;;;;;;5028522;28;20999;-76
2021/07/05 10:40:45;;;;;;;1.00;0.70;;;19.40;1.00;;;;;;5031370;28;20486;-78
2021/07/05 10:43:15;;;;;;;0.80;0.80;;;19.40;99.90;;;;;;5042655;28;20574;-77
2021/07/05 10:45:46;;;;;;;1.13;0.70;;;19.40;99.90;;;;;;5029370;28;20940;-77
2021/07/05 10:48:16;;;;;;;0.60;0.60;;;19.50;1.00;;;;;;5009190;28;20437;-77
2021/07/05 10:50:51;;;;;;;0.80;0.60;;;19.60;1.00;;;;;;5028853;28;20468;-78
2021/07/05 10:53:52;;;;;;;0.80;0.80;;;19.60;99.90;;;;;;5029064;28;20468;-76
2021/07/05 10:56:29;;;;;;;0.60;0.60;;;19.50;1.00;;;;;;5029673;28;20454;-78
2021/07/05 10:58:59;;;;;;;1.20;0.83;;;19.60;99.90;;;;;;5030049;28;20467;-77
2021/07/05 11:01:38;;;;;;;0.87;0.80;;;19.70;99.90;;;;;;5030917;28;20452;-78
2021/07/05 11:04:28;;;;;;;0.77;0.77;;;19.60;1.00;;;;;;5030297;28;20476;-78
2021/07/05 11:06:59;;;;;;;0.70;0.70;;;19.60;99.90;;;;;;5044231;28;20543;-78
2021/07/05 11:09:28;;;;;;;0.70;0.70;;;19.60;99.90;;;;;;5043056;28;20479;-76
2021/07/05 11:11:58;;;;;;;0.60;0.60;;;19.60;99.90;;;;;;5048497;28;20944;-79
2021/07/05 11:14:30;;;;;;;0.73;0.73;;;19.70;99.90;;;;;;5045748;28;20855;-78
2021/07/05 11:17:08;;;;;;;0.70;0.70;;;19.70;99.90;;;;;;5031370;28;20480;-79
2021/07/05 11:19:48;;;;;;;0.70;0.70;;;19.70;1.00;;;;;;5032846;28;20535;-79
2021/07/05 11:22:25;;;;;;;0.70;0.67;;;19.80;99.90;;;;;;5026461;28;20510;-80
2021/07/05 11:25:10;;;;;;;0.80;0.80;;;19.80;37.80;;;;;;5032988;28;20967;-76
2021/07/05 11:27:59;;;;;;;1.13;0.80;;;19.90;99.90;;;;;;5032070;28;20803;-78
2021/07/05 11:30:39;;;;;;;1.13;0.80;;;19.90;99.90;;;;;;5023659;28;20556;-77
2021/07/05 11:33:25;;;;;;;0.80;0.77;;;20.00;1.00;;;;;;5030262;28;20479;-78
2021/07/05 11:35:58;;;;;;;2.70;0.93;;;20.00;99.90;;;;;;5028385;28;20483;-78
2021/07/05 11:38:29;;;;;;;0.90;0.90;;;20.00;99.90;;;;;;5032063;28;20456;-79
2021/07/05 11:41:01;;;;;;;1.10;1.00;;;20.00;1.00;;;;;;5023493;28;20453;-78
2021/07/05 11:43:55;;;;;;;0.80;0.80;;;20.00;1.00;;;;;;5031112;28;20472;-77
2021/07/05 11:46:50;;;;;;;4.17;0.80;;;20.00;99.90;;;;;;5009595;28;20457;-76
2021/07/05 11:49:28;;;;;;;1.17;0.70;;;20.10;1.00;;;;;;5031739;28;20492;-78
2021/07/05 11:51:59;;;;;;;0.70;0.70;;;20.10;99.90;;;;;;5031980;28;21024;-78
2021/07/05 11:54:30;;;;;;;1.20;1.10;;;20.20;99.90;;;;;;5032420;28;21122;-78
2021/07/05 11:57:03;;;;;;;0.80;0.80;;;20.20;1.00;;;;;;5041159;28;20964;-78
2021/07/05 11:59:32;;;;;;;1.37;0.80;;;20.20;1.00;;;;;;5012343;28;20944;-77
2021/07/05 12:02:03;;;;;;;0.80;0.80;;;20.30;99.90;;;;;;5028312;28;20472;-79
2021/07/05 12:04:34;;;;;;;0.80;0.80;;;20.30;1.00;;;;;;5034743;28;20481;-79
2021/07/05 12:07:05;;;;;;;1.20;1.00;;;20.30;99.90;;;;;;5034118;28;20844;-78
2021/07/05 12:09:34;;;;;;;1.37;1.00;;;20.30;99.90;;;;;;5048400;28;20484;-79
2021/07/05 12:12:15;;;;;;;0.80;0.80;;;20.30;60.30;;;;;;5035163;28;20482;-79
2021/07/05 12:14:46;;;;;;;1.00;0.90;;;20.40;99.90;;;;;;5031663;28;20535;-80
2021/07/05 12:17:15;;;;;;;0.77;0.77;;;20.40;1.00;;;;;;5028445;28;20467;-80
2021/07/05 12:19:46;;;;;;;0.93;0.70;;;20.50;1.00;;;;;;5029440;28;20460;-77
2021/07/05 12:22:16;;;;;;;0.93;0.93;;;20.50;1.00;;;;;;5033320;28;21036;-77
2021/07/05 12:24:46;;;;;;;2.90;0.90;;;20.50;99.90;;;;;;5030860;28;20456;-79
2021/07/05 12:27:18;;;;;;;1.37;0.90;;;20.70;99.90;;;;;;5030995;28;20471;-79
2021/07/05 12:29:50;;;;;;;0.70;0.70;;;20.70;99.90;;;;;;5033426;28;20980;-76
2021/07/05 12:32:21;;;;;;;0.90;0.80;;;20.80;99.90;;;;;;5029234;28;20568;-80
2021/07/05 12:34:58;;;;;;;0.93;0.90;;;20.90;1.00;;;;;;5029224;28;20484;-78
2021/07/05 12:37:41;;;;;;;1.33;0.80;;;20.80;99.90;;;;;;5028396;28;20513;-78
2021/07/05 12:40:13;;;;;;;1.00;1.00;;;20.80;1.00;;;;;;5028582;28;20486;-78
2021/07/05 12:42:46;;;;;;;1.43;0.90;;;20.90;99.90;;;;;;5030621;28;20563;-76
2021/07/05 12:45:21;;;;;;;0.90;0.90;;;21.00;99.90;;;;;;5028924;28;20487;-79
2021/07/05 12:47:59;;;;;;;0.80;0.80;;;21.10;99.90;;;;;;5032204;28;20442;-79
2021/07/05 12:50:30;;;;;;;0.63;0.63;;;21.10;1.00;;;;;;5031420;28;20468;-77
2021/07/05 12:53:18;;;;;;;0.83;0.70;;;21.10;1.00;;;;;;5031713;28;20481;-77
2021/07/05 12:55:56;;;;;;;0.80;0.80;;;21.30;1.00;;;;;;5045641;28;20456;-77
2021/07/05 12:58:40;;;;;;;0.80;0.80;;;21.40;99.90;;;;;;5019155;28;20460;-78
2021/07/05 13:01:12;;;;;;;0.63;0.63;;;21.40;99.90;;;;;;5025918;28;20550;-78
2021/07/05 13:03:54;;;;;;;0.83;0.83;;;21.30;99.90;;;;;;5028970;28;20934;-77
2021/07/05 13:06:22;;;;;;;0.70;0.70;;;21.20;99.90;;;;;;5026778;28;20446;-77
2021/07/05 13:08:57;;;;;;;0.90;0.90;;;21.30;99.90;;;;;;5029122;28;20469;-78